Estación Meteorológica Peña el Pijo (Robertgarden) [ 09/24/17 17:46:10 CEST ]

Fecha Hora Presion(HPa) Temp (°C) Humedad % Rocio (°C) Viento ( m/s) Direccion Lluvia 1Hora(mm) Lluvia 24H(mm) LLuvia Total(mm)
2017-Aug-11 01:01:42 1015.600 15.3 76 11.1         1437.96
2017-Aug-11 02:02:00 1015.700 13.8 78 10.0         1437.96
2017-Aug-11 03:01:11 1015.200 13.1 79 9.5         1437.96
2017-Aug-11 04:01:11 1014.600 12.2 81 9.0         1437.96
2017-Aug-11 05:01:11 1014.600 11.5 83 8.7         1437.96
2017-Aug-11 06:01:09 1014.200 10.7 83 7.9         1437.96
2017-Aug-11 07:01:37 1014.300 9.9 85 7.4         1437.96
2017-Aug-11 08:01:51 1014.600 9.9 85 7.4         1437.96
2017-Aug-11 09:01:42 1014.800 12.5 86 10.2         1437.96
2017-Aug-11 10:01:36 1014.700 17.1 85 14.5         1437.96
2017-Aug-11 11:01:45 1014.700 22.9 62 15.2         1437.96
2017-Aug-11 12:02:02 1014.600 28.9 41 14.3         1437.96
2017-Aug-11 13:01:53 1013.900 31.1 33 12.8         1437.96
2017-Aug-11 14:01:35 1013.500 31.8 28 10.9         1437.96
2017-Aug-11 15:01:45 1013.200 32.3 26 10.1         1437.96
2017-Aug-11 16:01:56 1012.800 32.9 27 11.3         1437.96
2017-Aug-11 17:01:30 1012.700 31.6 31 12.4         1437.96
2017-Aug-11 18:01:20 1012.400 30.9 31 11.8 0.3 SSW     1437.96
2017-Aug-11 19:01:33 1012.200 29.6 33 11.6         1437.96
2017-Aug-11 20:01:41 1012.500 25.9 39 10.9         1437.96
2017-Aug-11 21:01:51 1013.000 22.8 47 10.8         1437.96
2017-Aug-11 22:01:47 1013.800 20.9 54 11.2         1437.96
2017-Aug-11 23:01:45 1014.600 18.9 58 10.5         1437.96

Temperatura Máxima:32°    Temperatura Mínima:
Presión Máxima:1015.700 Hpa    Presión Mínima:1012.200 Hpa


Volver